createdAt,value
2023-09-27T00:03:51.905Z,72.86
2023-09-27T00:07:55.599Z,73.19
2023-09-27T00:12:05.047Z,72.95
2023-09-27T00:16:08.497Z,73.57
2023-09-27T00:20:17.646Z,73.71
2023-09-27T00:24:21.301Z,74.30
2023-09-27T00:28:26.471Z,74.03
2023-09-27T00:32:29.933Z,74.06
2023-09-27T00:36:33.624Z,74.47
2023-09-27T00:40:37.176Z,73.93
2023-09-27T00:44:42.077Z,74.17
2023-09-27T00:48:46.482Z,73.37
2023-09-27T00:52:50.752Z,72.69
2023-09-27T00:56:55.202Z,71.88
2023-09-27T01:01:00.658Z,71.99
2023-09-27T01:05:04.394Z,72.79
2023-09-27T01:09:07.729Z,73.29
2023-09-27T01:13:11.449Z,73.22
2023-09-27T01:17:16.057Z,72.89
2023-09-27T01:21:20.892Z,73.90
2023-09-27T01:25:28.310Z,73.60
2023-09-27T01:29:31.825Z,74.66
2023-09-27T01:33:34.951Z,75.02
2023-09-27T01:37:39.183Z,74.33
2023-09-27T01:41:44.019Z,75.00
2023-09-27T01:45:47.589Z,74.70
2023-09-27T01:49:51.413Z,73.55
2023-09-27T01:53:54.892Z,73.66
2023-09-27T01:58:00.184Z,74.06
2023-09-27T02:02:04.091Z,74.18
2023-09-27T02:06:07.278Z,73.97
2023-09-27T02:10:11.774Z,73.86
2023-09-27T02:14:16.755Z,73.75
2023-09-27T02:18:20.606Z,73.81
2023-09-27T02:22:24.216Z,73.32
2023-09-27T02:26:28.004Z,74.11
2023-09-27T02:30:33.742Z,74.50
2023-09-27T02:34:37.208Z,74.68
2023-09-27T02:38:40.467Z,74.79
2023-09-27T02:42:45.914Z,75.28
2023-09-27T02:46:50.763Z,75.93
2023-09-27T02:50:55.653Z,75.27
2023-09-27T02:54:58.907Z,74.90
2023-09-27T02:59:02.677Z,76.20
2023-09-27T03:03:08.853Z,76.30
2023-09-27T03:07:13.014Z,76.36
2023-09-27T03:11:16.631Z,76.20
2023-09-27T03:15:21.298Z,75.97
2023-09-27T03:19:26.043Z,75.54
2023-09-27T03:23:30.034Z,75.72
2023-09-27T03:27:33.305Z,74.97
2023-09-27T03:31:36.589Z,74.54
2023-09-27T03:35:41.605Z,73.43
2023-09-27T03:39:45.524Z,73.22
2023-09-27T03:43:51.471Z,74.58
2023-09-27T03:47:55.249Z,75.52
2023-09-27T03:52:00.092Z,75.33
2023-09-27T03:56:04.272Z,75.15
2023-09-27T04:00:10.369Z,75.38
2023-09-27T04:04:13.913Z,76.37
2023-09-27T04:08:19.128Z,76.32
2023-09-27T04:12:22.957Z,76.81
2023-09-27T04:16:29.398Z,76.73
2023-09-27T04:20:35.792Z,76.09
2023-09-27T04:24:41.245Z,75.56
2023-09-27T04:28:44.669Z,74.46
2023-09-27T04:32:52.183Z,73.90
2023-09-27T04:36:55.968Z,73.88
2023-09-27T04:41:00.855Z,73.62
2023-09-27T04:45:04.900Z,74.73
2023-09-27T04:49:08.284Z,75.32
2023-09-27T04:53:11.879Z,75.59
2023-09-27T04:57:17.156Z,75.04
2023-09-27T05:01:20.697Z,74.77
2023-09-27T05:05:23.974Z,74.46
2023-09-27T05:09:28.248Z,74.10
2023-09-27T05:13:33.016Z,74.02
2023-09-27T05:17:37.016Z,74.29
2023-09-27T05:21:41.210Z,74.64
2023-09-27T05:25:45.517Z,74.94
2023-09-27T05:29:50.421Z,75.23
2023-09-27T05:33:53.944Z,75.22
2023-09-27T05:38:00.276Z,75.29
2023-09-27T05:42:03.893Z,75.74
2023-09-27T05:46:09.008Z,75.70
2023-09-27T05:50:14.468Z,76.14
2023-09-27T05:54:20.615Z,76.17
2023-09-27T05:58:24.006Z,76.19
2023-09-27T06:02:32.618Z,76.44
2023-09-27T06:06:38.324Z,76.66
2023-09-27T06:10:42.310Z,75.99
2023-09-27T06:14:46.307Z,75.75
2023-09-27T06:18:51.675Z,75.27
2023-09-27T06:22:55.610Z,73.15
2023-09-27T06:26:59.774Z,73.60
2023-09-27T06:31:04.262Z,73.56
2023-09-27T06:35:14.535Z,73.44
2023-09-27T06:39:20.575Z,74.61
2023-09-27T06:43:25.380Z,74.56
2023-09-27T06:47:30.486Z,74.29
2023-09-27T06:51:35.258Z,74.58
2023-09-27T06:55:38.487Z,73.28
2023-09-27T06:59:41.813Z,72.80
2023-09-27T07:03:45.331Z,72.22
2023-09-27T07:07:50.446Z,72.63
2023-09-27T07:11:54.503Z,72.80
2023-09-27T07:15:57.759Z,71.54
2023-09-27T07:20:00.961Z,71.32
2023-09-27T07:24:06.417Z,69.21
2023-09-27T07:28:10.004Z,66.79
2023-09-27T07:32:13.356Z,64.95
2023-09-27T07:36:17.770Z,64.84
2023-09-27T07:40:22.737Z,63.58
2023-09-27T07:44:27.872Z,61.30
2023-09-27T07:48:33.487Z,59.44
2023-09-27T07:52:39.517Z,58.60
2023-09-27T07:56:45.189Z,58.53
2023-09-27T08:00:49.076Z,58.04
2023-09-27T08:04:53.309Z,56.80
2023-09-27T08:08:59.256Z,57.40
2023-09-27T08:13:05.611Z,56.11
2023-09-27T08:17:09.214Z,53.88
2023-09-27T08:21:12.756Z,52.93
2023-09-27T08:25:17.021Z,54.05
2023-09-27T08:29:23.008Z,53.05
2023-09-27T08:33:27.279Z,51.93
2023-09-27T08:37:31.015Z,51.47
2023-09-27T08:41:35.180Z,51.72
2023-09-27T08:49:43.246Z,52.35
2023-09-27T08:53:46.484Z,51.11
2023-09-27T08:57:52.603Z,51.52
2023-09-27T09:01:56.927Z,50.27
2023-09-27T09:06:02.006Z,50.78
2023-09-27T09:10:05.856Z,53.01
2023-09-27T09:14:11.989Z,49.45
2023-09-27T09:18:29.589Z,48.33
2023-09-27T09:22:45.697Z,51.56
2023-09-27T09:26:51.314Z,47.31
2023-09-27T09:30:55.578Z,46.78
2023-09-27T09:34:59.098Z,46.33
2023-09-27T09:39:14.980Z,47.95
2023-09-27T09:43:31.494Z,48.86
2023-09-27T09:47:37.026Z,46.20
2023-09-27T09:51:43.176Z,45.99
2023-09-27T09:56:25.275Z,47.81
2023-09-27T10:00:18.734Z,47.45
2023-09-27T10:04:25.263Z,47.26
2023-09-27T10:08:36.375Z,48.22
2023-09-27T10:12:46.362Z,46.44
2023-09-27T10:16:52.371Z,45.56
2023-09-27T10:21:04.676Z,48.42
2023-09-27T10:25:07.750Z,50.46
2023-09-27T10:29:19.205Z,47.56
2023-09-27T10:33:34.026Z,47.68
2023-09-27T10:38:00.380Z,46.22
2023-09-27T10:42:03.809Z,43.09
2023-09-27T10:46:09.725Z,43.65
2023-09-27T10:50:14.571Z,43.29
2023-09-27T10:54:18.045Z,44.30
2023-09-27T10:58:21.268Z,43.53
2023-09-27T11:02:33.819Z,44.88
2023-09-27T11:06:38.524Z,42.41
2023-09-27T11:10:42.647Z,41.63
2023-09-27T11:14:48.631Z,41.38
2023-09-27T11:18:54.145Z,42.15
2023-09-27T11:23:01.044Z,42.08
2023-09-27T11:27:04.833Z,40.60
2023-09-27T11:31:09.025Z,41.50
2023-09-27T11:35:21.455Z,42.58
2023-09-27T11:39:29.736Z,41.72
2023-09-27T11:43:35.162Z,39.58
2023-09-27T11:47:48.091Z,42.33
2023-09-27T11:51:52.978Z,40.71
2023-09-27T11:55:58.566Z,39.68
2023-09-27T12:00:03.202Z,38.22
2023-09-27T12:04:07.563Z,37.96
2023-09-27T12:08:13.029Z,40.88
2023-09-27T12:12:16.085Z,39.04
2023-09-27T12:16:22.124Z,39.36
2023-09-27T12:20:39.623Z,39.56
2023-09-27T12:24:47.232Z,40.04
2023-09-27T12:28:50.576Z,40.09
2023-09-27T12:32:54.727Z,39.17
2023-09-27T12:36:58.940Z,38.75
2023-09-27T12:41:06.404Z,39.15
2023-09-27T12:45:11.481Z,38.63
2023-09-27T12:49:19.281Z,38.50
2023-09-27T12:53:22.599Z,39.14
2023-09-27T12:57:28.048Z,38.55
2023-09-27T13:01:31.613Z,38.25
2023-09-27T13:05:37.299Z,38.41
2023-09-27T13:09:42.313Z,37.53
2023-09-27T13:13:47.192Z,37.99
2023-09-27T13:17:50.534Z,38.58
2023-09-27T13:21:54.009Z,36.67
2023-09-27T13:25:58.137Z,36.28
2023-09-27T13:30:04.740Z,37.07
2023-09-27T13:34:11.759Z,35.06
2023-09-27T13:38:15.912Z,37.18
2023-09-27T13:42:19.958Z,36.86
2023-09-27T13:46:25.118Z,37.94
2023-09-27T13:50:28.777Z,36.84
2023-09-27T13:54:33.675Z,37.61
2023-09-27T13:58:40.551Z,38.57
2023-09-27T14:02:45.723Z,38.43
2023-09-27T14:06:48.809Z,37.96
2023-09-27T14:10:52.539Z,38.35
2023-09-27T14:14:56.196Z,39.08
2023-09-27T14:19:04.586Z,38.39
2023-09-27T14:23:07.778Z,38.32
2023-09-27T14:27:11.300Z,38.82
2023-09-27T14:31:17.621Z,38.05
2023-09-27T14:35:22.598Z,37.63
2023-09-27T14:39:25.907Z,37.06
2023-09-27T14:43:30.301Z,37.82
2023-09-27T14:47:34.075Z,38.24
2023-09-27T14:51:39.071Z,39.06
2023-09-27T14:55:44.848Z,38.59
2023-09-27T14:59:48.091Z,38.34
2023-09-27T15:03:54.219Z,38.15
2023-09-27T15:08:02.455Z,35.50
2023-09-27T15:12:05.942Z,35.39
2023-09-27T15:16:09.681Z,34.95
2023-09-27T15:20:15.869Z,35.47
2023-09-27T15:24:23.130Z,35.70
2023-09-27T15:28:26.479Z,36.27
2023-09-27T15:32:30.258Z,36.72
2023-09-27T15:36:34.618Z,35.62
2023-09-27T15:40:39.330Z,37.04
2023-09-27T15:44:42.797Z,37.00
2023-09-27T15:48:46.314Z,36.44
2023-09-27T15:52:50.183Z,37.54
2023-09-27T15:56:55.254Z,38.25
2023-09-27T16:00:58.446Z,39.24
2023-09-27T16:05:02.254Z,38.65
2023-09-27T16:09:07.069Z,39.37
2023-09-27T16:13:11.982Z,40.31
2023-09-27T16:17:15.379Z,41.03
2023-09-27T16:21:20.839Z,41.68
2023-09-27T16:25:25.302Z,42.11
2023-09-27T16:29:30.502Z,42.07
2023-09-27T16:33:41.991Z,43.04
2023-09-27T16:37:45.449Z,43.92
2023-09-27T16:41:49.125Z,44.26
2023-09-27T16:45:53.746Z,44.95
2023-09-27T16:49:57.694Z,45.80
2023-09-27T16:54:02.042Z,46.87
2023-09-27T16:58:07.410Z,47.68
2023-09-27T17:02:12.618Z,48.49
2023-09-27T17:06:20.085Z,48.67
2023-09-27T17:10:24.071Z,50.54
2023-09-27T17:14:27.737Z,50.29
2023-09-27T17:18:34.083Z,50.99
2023-09-27T17:22:37.761Z,51.18
2023-09-27T17:26:40.834Z,52.46
2023-09-27T17:30:44.337Z,52.76
2023-09-27T17:34:49.524Z,52.72
2023-09-27T17:38:53.201Z,53.04
2023-09-27T17:42:57.571Z,53.55
2023-09-27T17:47:01.069Z,54.57
2023-09-27T17:51:06.413Z,54.19
2023-09-27T17:55:13.039Z,55.39
2023-09-27T17:59:18.728Z,55.98
2023-09-27T18:03:22.129Z,56.82
2023-09-27T18:07:28.318Z,57.16
2023-09-27T18:11:31.706Z,57.43
2023-09-27T18:15:37.239Z,58.80
2023-09-27T18:19:40.949Z,58.20
2023-09-27T18:23:46.611Z,57.68
2023-09-27T18:27:50.334Z,58.60
2023-09-27T18:31:54.037Z,59.38
2023-09-27T18:35:57.789Z,58.84
2023-09-27T18:40:04.919Z,58.56
2023-09-27T18:44:08.671Z,59.34
2023-09-27T18:48:21.740Z,58.29
2023-09-27T18:52:25.330Z,59.38
2023-09-27T18:56:34.799Z,58.10
2023-09-27T19:00:39.340Z,58.66
2023-09-27T19:04:45.539Z,58.71
2023-09-27T19:08:49.899Z,58.68
2023-09-27T19:12:59.630Z,57.62
2023-09-27T19:17:04.340Z,57.86
2023-09-27T19:21:10.392Z,57.43
2023-09-27T19:25:14.834Z,57.73
2023-09-27T19:29:19.940Z,57.53
2023-09-27T19:33:25.995Z,57.59
2023-09-27T19:37:29.267Z,57.08
2023-09-27T19:41:34.890Z,56.47
2023-09-27T19:45:40.680Z,56.26
2023-09-27T19:49:43.780Z,56.10
2023-09-27T19:53:47.517Z,55.87
2023-09-27T19:57:54.917Z,55.36
2023-09-27T20:02:00.825Z,55.43
2023-09-27T20:06:04.328Z,55.25
2023-09-27T20:10:10.994Z,54.96
2023-09-27T20:14:14.542Z,55.55
2023-09-27T20:18:20.168Z,54.96
2023-09-27T20:22:25.971Z,54.80
2023-09-27T20:26:30.612Z,55.54
2023-09-27T20:30:34.203Z,55.20
2023-09-27T20:34:39.582Z,55.18
2023-09-27T20:38:44.660Z,55.71
2023-09-27T20:42:48.137Z,55.71
2023-09-27T20:46:52.684Z,55.68
2023-09-27T20:50:59.009Z,55.32
2023-09-27T20:55:03.190Z,55.66
2023-09-27T20:59:07.594Z,56.06
2023-09-27T21:03:10.949Z,55.99
2023-09-27T21:07:15.624Z,56.78
2023-09-27T21:11:19.222Z,56.77
2023-09-27T21:15:22.709Z,56.93
2023-09-27T21:19:27.113Z,57.29
2023-09-27T21:23:32.238Z,57.09
2023-09-27T21:27:36.177Z,57.42
2023-09-27T21:31:39.877Z,57.76
2023-09-27T21:35:44.544Z,58.24
2023-09-27T21:39:49.604Z,59.02
2023-09-27T21:43:53.228Z,59.39
2023-09-27T21:47:58.276Z,60.01
2023-09-27T21:52:01.833Z,60.25
2023-09-27T21:56:07.159Z,59.83
2023-09-27T22:00:21.465Z,60.31
2023-09-27T22:04:24.665Z,59.68
2023-09-27T22:08:28.242Z,60.67
2023-09-27T22:12:33.107Z,61.14
2023-09-27T22:16:37.947Z,61.23
2023-09-27T22:20:46.161Z,62.25
2023-09-27T22:24:49.783Z,62.59
2023-09-27T22:28:57.266Z,62.43
2023-09-27T22:33:05.939Z,62.36
2023-09-27T22:37:09.563Z,62.16
2023-09-27T22:41:17.772Z,61.97
2023-09-27T22:45:36.374Z,63.63
2023-09-27T22:49:41.991Z,66.14
2023-09-27T22:53:46.503Z,67.19
2023-09-27T22:57:50.666Z,67.32
2023-09-27T23:01:57.196Z,67.94
2023-09-27T23:06:02.961Z,67.68
2023-09-27T23:10:13.461Z,70.07
2023-09-27T23:14:23.456Z,71.67
2023-09-27T23:18:31.706Z,70.61
2023-09-27T23:22:55.275Z,70.44
2023-09-27T23:27:05.037Z,70.03
2023-09-27T23:31:10.904Z,69.81
2023-09-27T23:35:19.290Z,70.96
2023-09-27T23:39:24.760Z,70.25
2023-09-27T23:43:38.892Z,71.18
2023-09-27T23:47:46.063Z,70.16
2023-09-27T23:51:55.234Z,70.00
2023-09-27T23:56:01.123Z,69.55
